LAN144 EGYP-SAEZ
Flight info
| Callsign | LAN144 |
|---|---|
| Flight time | 2h 29m |
| Altitude | 38000 |
| Route | MOSKA UT103 MIPAT/N0450F370 UT103 DIL UZ117 GBE GBE7X |
| Aircraft | A319/M-SDE3FGHIRWY/LB1 |
Departure
| Time | 2026-04-23 09:50 |
|---|---|
| Airport | Mount Pleasant Airport / RAF Mount Pleasant (EGYP) |
Arrival
| Time | 2026-04-23 12:20 |
|---|---|
| Airport | Ezeiza International Airport - Ministro Pistarini (SAEZ) |
| Time | Latitude | Longitude | Altitude | Speed | Heading |
|---|---|---|---|---|---|
| 2026-04-23 09:28 | -51.81974 | -58.45076 | 259 ft | 0 kts | 14° |
| 2026-04-23 09:46 | -51.81966 | -58.45075 | 259 ft | 3 kts | 0° |
| 2026-04-23 09:46 | -51.81961 | -58.45120 | 259 ft | 7 kts | 255° |
| 2026-04-23 09:47 | -51.82012 | -58.45146 | 259 ft | 10 kts | 210° |
| 2026-04-23 09:47 | -51.82055 | -58.45256 | 262 ft | 12 kts | 242° |
| 2026-04-23 09:47 | -51.82117 | -58.45355 | 264 ft | 15 kts | 177° |
| 2026-04-23 09:47 | -51.82165 | -58.45202 | 264 ft | 18 kts | 104° |
| 2026-04-23 09:48 | -51.82203 | -58.44981 | 263 ft | 23 kts | 105° |
| 2026-04-23 09:48 | -51.82247 | -58.44706 | 261 ft | 28 kts | 106° |
| 2026-04-23 09:48 | -51.82305 | -58.44382 | 263 ft | 31 kts | 104° |
| 2026-04-23 09:48 | -51.82274 | -58.44080 | 262 ft | 22 kts | 73° |
| 2026-04-23 09:49 | -51.82322 | -58.43881 | 264 ft | 13 kts | 159° |
| 2026-04-23 09:49 | -51.82376 | -58.43957 | 265 ft | 11 kts | 291° |
| 2026-04-23 09:49 | -51.82351 | -58.44112 | 263 ft | 18 kts | 284° |
| 2026-04-23 09:49 | -51.82277 | -58.44541 | 261 ft | 72 kts | 285° |
| 2026-04-23 09:50 | -51.82091 | -58.45644 | 262 ft | 130 kts | 285° |
| 2026-04-23 09:50 | -51.81819 | -58.47297 | 415 ft | 164 kts | 286° |
| 2026-04-23 09:50 | -51.81532 | -58.49050 | 1195 ft | 159 kts | 291° |
| 2026-04-23 09:50 | -51.81226 | -58.50835 | 1672 ft | 177 kts | 292° |
| 2026-04-23 09:51 | -51.80773 | -58.52839 | 1952 ft | 201 kts | 306° |
| 2026-04-23 09:51 | -51.79578 | -58.54127 | 2530 ft | 222 kts | 344° |
| 2026-04-23 09:51 | -51.77994 | -58.54284 | 3453 ft | 234 kts | 356° |
| 2026-04-23 09:51 | -51.76348 | -58.54097 | 4401 ft | 242 kts | 359° |
| 2026-04-23 09:52 | -51.74652 | -58.53850 | 5315 ft | 247 kts | 359° |
| 2026-04-23 09:52 | -51.72925 | -58.53637 | 6210 ft | 251 kts | 358° |
| 2026-04-23 09:52 | -51.71171 | -58.53477 | 7160 ft | 255 kts | 357° |
| 2026-04-23 09:52 | -51.69385 | -58.53362 | 8094 ft | 259 kts | 356° |
| 2026-04-23 09:53 | -51.67567 | -58.53282 | 9026 ft | 264 kts | 355° |
| 2026-04-23 09:53 | -51.65712 | -58.53223 | 9811 ft | 272 kts | 355° |
| 2026-04-23 09:53 | -51.63736 | -58.53184 | 10116 ft | 296 kts | 355° |
| 2026-04-23 09:53 | -51.61599 | -58.53151 | 10379 ft | 317 kts | 356° |
| 2026-04-23 09:54 | -51.59360 | -58.53110 | 11022 ft | 325 kts | 356° |
| 2026-04-23 09:54 | -51.57112 | -58.53058 | 11766 ft | 329 kts | 356° |
| 2026-04-23 09:54 | -51.54776 | -58.53004 | 12537 ft | 333 kts | 356° |
| 2026-04-23 09:54 | -51.52476 | -58.52952 | 13296 ft | 336 kts | 356° |
| 2026-04-23 09:55 | -51.50094 | -58.52894 | 13982 ft | 339 kts | 356° |
| 2026-04-23 09:55 | -51.47727 | -58.52838 | 14678 ft | 342 kts | 356° |
| 2026-04-23 09:55 | -51.45375 | -58.52789 | 15365 ft | 344 kts | 356° |
| 2026-04-23 09:55 | -51.42978 | -58.52745 | 16066 ft | 346 kts | 356° |
| 2026-04-23 09:56 | -51.40565 | -58.52701 | 16776 ft | 348 kts | 356° |
| 2026-04-23 09:56 | -51.38138 | -58.52652 | 17472 ft | 350 kts | 356° |
| 2026-04-23 09:56 | -51.35692 | -58.52604 | 18130 ft | 353 kts | 356° |
| 2026-04-23 09:56 | -51.33226 | -58.52557 | 18720 ft | 356 kts | 356° |
| 2026-04-23 09:57 | -51.30740 | -58.52511 | 19312 ft | 359 kts | 356° |
| 2026-04-23 09:57 | -51.28234 | -58.52464 | 19902 ft | 362 kts | 356° |
| 2026-04-23 09:57 | -51.25701 | -58.52414 | 20490 ft | 365 kts | 356° |
| 2026-04-23 09:57 | -51.23150 | -58.52364 | 21045 ft | 368 kts | 356° |
| 2026-04-23 09:58 | -51.20577 | -58.52315 | 21585 ft | 371 kts | 356° |
| 2026-04-23 09:58 | -51.17983 | -58.52268 | 22060 ft | 375 kts | 357° |
| 2026-04-23 09:58 | -51.15349 | -58.52218 | 22460 ft | 381 kts | 357° |
| 2026-04-23 09:58 | -51.12686 | -58.52164 | 22964 ft | 384 kts | 357° |
| 2026-04-23 09:59 | -51.10006 | -58.52107 | 23421 ft | 387 kts | 357° |
| 2026-04-23 09:59 | -51.07304 | -58.52050 | 23842 ft | 390 kts | 357° |
| 2026-04-23 09:59 | -51.04583 | -58.51995 | 24261 ft | 392 kts | 357° |
| 2026-04-23 09:59 | -51.01845 | -58.51937 | 24674 ft | 395 kts | 357° |
| 2026-04-23 10:00 | -50.99092 | -58.51879 | 25096 ft | 397 kts | 357° |
| 2026-04-23 10:00 | -50.96323 | -58.51823 | 25522 ft | 399 kts | 357° |
| 2026-04-23 10:00 | -50.93536 | -58.51773 | 25942 ft | 402 kts | 356° |
| 2026-04-23 10:00 | -50.90731 | -58.51725 | 26360 ft | 404 kts | 357° |
| 2026-04-23 10:01 | -50.87910 | -58.51670 | 26762 ft | 407 kts | 356° |
| 2026-04-23 10:01 | -50.85070 | -58.51610 | 27145 ft | 410 kts | 356° |
| 2026-04-23 10:01 | -50.82210 | -58.51547 | 27529 ft | 412 kts | 356° |
| 2026-04-23 10:01 | -50.79334 | -58.51488 | 27909 ft | 415 kts | 356° |
| 2026-04-23 10:02 | -50.76478 | -58.51436 | 28274 ft | 417 kts | 356° |
| 2026-04-23 10:02 | -50.73567 | -58.51386 | 28581 ft | 420 kts | 357° |
| 2026-04-23 10:02 | -50.70630 | -58.51334 | 28913 ft | 423 kts | 357° |
| 2026-04-23 10:02 | -50.67678 | -58.51282 | 29264 ft | 426 kts | 357° |
| 2026-04-23 10:03 | -50.64709 | -58.51226 | 29612 ft | 428 kts | 357° |
| 2026-04-23 10:03 | -50.61724 | -58.51167 | 29899 ft | 430 kts | 357° |
| 2026-04-23 10:03 | -50.58719 | -58.51103 | 30165 ft | 433 kts | 357° |
| 2026-04-23 10:03 | -50.55713 | -58.51124 | 30539 ft | 431 kts | 354° |
| 2026-04-23 10:04 | -50.52719 | -58.51329 | 30930 ft | 430 kts | 353° |
| 2026-04-23 10:04 | -50.49739 | -58.51664 | 31321 ft | 429 kts | 352° |
| 2026-04-23 10:04 | -50.46766 | -58.52059 | 31717 ft | 429 kts | 351° |
| 2026-04-23 10:04 | -50.43795 | -58.52452 | 32122 ft | 428 kts | 351° |
| 2026-04-23 10:05 | -50.40825 | -58.52815 | 32522 ft | 428 kts | 352° |
| 2026-04-23 10:05 | -50.37855 | -58.53144 | 32933 ft | 428 kts | 352° |
| 2026-04-23 10:05 | -50.34888 | -58.53453 | 33331 ft | 428 kts | 352° |
| 2026-04-23 10:05 | -50.31917 | -58.53749 | 33693 ft | 428 kts | 352° |
| 2026-04-23 10:06 | -50.28945 | -58.54033 | 34005 ft | 428 kts | 352° |
| 2026-04-23 10:06 | -50.25968 | -58.54320 | 34321 ft | 429 kts | 352° |
| 2026-04-23 10:06 | -50.22992 | -58.54614 | 34657 ft | 429 kts | 352° |
| 2026-04-23 10:06 | -50.20016 | -58.54912 | 35000 ft | 428 kts | 352° |
| 2026-04-23 10:07 | -50.17042 | -58.55211 | 35337 ft | 428 kts | 352° |
| 2026-04-23 10:07 | -50.14067 | -58.55513 | 35659 ft | 428 kts | 352° |
| 2026-04-23 10:07 | -50.11097 | -58.55816 | 35976 ft | 428 kts | 352° |
| 2026-04-23 10:07 | -50.08127 | -58.56116 | 36262 ft | 428 kts | 352° |
| 2026-04-23 10:08 | -50.05154 | -58.56415 | 36539 ft | 428 kts | 352° |
| 2026-04-23 10:08 | -50.02179 | -58.56717 | 36833 ft | 428 kts | 352° |
| 2026-04-23 10:08 | -49.99205 | -58.57016 | 37129 ft | 428 kts | 352° |
| 2026-04-23 10:09 | -49.93260 | -58.57609 | 37599 ft | 428 kts | 352° |
| 2026-04-23 10:09 | -49.90294 | -58.57903 | 37628 ft | 426 kts | 352° |
| 2026-04-23 10:09 | -49.84385 | -58.58487 | 37617 ft | 425 kts | 352° |
| 2026-04-23 10:10 | -49.78513 | -58.59077 | 37632 ft | 427 kts | 352° |
| 2026-04-23 10:10 | -49.72578 | -58.59667 | 37631 ft | 427 kts | 352° |
| 2026-04-23 10:11 | -49.66641 | -58.60254 | 37632 ft | 428 kts | 352° |
| 2026-04-23 10:11 | -49.60700 | -58.60836 | 37645 ft | 428 kts | 352° |
| 2026-04-23 10:12 | -49.54758 | -58.61415 | 37623 ft | 428 kts | 352° |
| 2026-04-23 10:12 | -49.48809 | -58.62010 | 37626 ft | 428 kts | 352° |
| 2026-04-23 10:13 | -49.42856 | -58.62595 | 37643 ft | 429 kts | 352° |
| 2026-04-23 10:13 | -49.36900 | -58.63165 | 37644 ft | 429 kts | 352° |
| 2026-04-23 10:14 | -49.30940 | -58.63735 | 37617 ft | 429 kts | 352° |
| 2026-04-23 10:14 | -49.24971 | -58.64330 | 37625 ft | 430 kts | 352° |
| 2026-04-23 10:15 | -49.18995 | -58.64909 | 37633 ft | 431 kts | 352° |
| 2026-04-23 10:15 | -49.13051 | -58.65478 | 37640 ft | 431 kts | 352° |
| 2026-04-23 10:16 | -49.07071 | -58.66071 | 37650 ft | 431 kts | 352° |
| 2026-04-23 10:16 | -49.01086 | -58.66658 | 37653 ft | 431 kts | 352° |
| 2026-04-23 10:17 | -48.95093 | -58.67138 | 37654 ft | 432 kts | 353° |
| 2026-04-23 10:17 | -48.89084 | -58.67440 | 37646 ft | 432 kts | 354° |
| 2026-04-23 10:18 | -48.83074 | -58.67740 | 37639 ft | 432 kts | 354° |
| 2026-04-23 10:18 | -48.77061 | -58.68080 | 37643 ft | 433 kts | 354° |
| 2026-04-23 10:19 | -48.71041 | -58.68431 | 37654 ft | 433 kts | 354° |
| 2026-04-23 10:19 | -48.65014 | -58.68780 | 37658 ft | 433 kts | 354° |
| 2026-04-23 10:20 | -48.58984 | -58.69133 | 37647 ft | 434 kts | 353° |
| 2026-04-23 10:20 | -48.52950 | -58.69494 | 37655 ft | 434 kts | 353° |
| 2026-04-23 10:21 | -48.46907 | -58.69841 | 37660 ft | 435 kts | 353° |
| 2026-04-23 10:21 | -48.40856 | -58.70188 | 37666 ft | 435 kts | 353° |
| 2026-04-23 10:22 | -48.34802 | -58.70523 | 37655 ft | 435 kts | 353° |
| 2026-04-23 10:22 | -48.28743 | -58.70868 | 37659 ft | 436 kts | 353° |
| 2026-04-23 10:23 | -48.22678 | -58.71221 | 37668 ft | 436 kts | 353° |
| 2026-04-23 10:23 | -48.16609 | -58.71574 | 37672 ft | 437 kts | 353° |
| 2026-04-23 10:24 | -48.10534 | -58.71926 | 37666 ft | 437 kts | 353° |
| 2026-04-23 10:24 | -48.04457 | -58.72263 | 37644 ft | 437 kts | 354° |
| 2026-04-23 10:25 | -47.98413 | -58.72602 | 37656 ft | 438 kts | 354° |
| 2026-04-23 10:25 | -47.92319 | -58.72945 | 37667 ft | 438 kts | 354° |
| 2026-04-23 10:26 | -47.86219 | -58.73284 | 37659 ft | 439 kts | 354° |
| 2026-04-23 10:26 | -47.80116 | -58.73630 | 37665 ft | 439 kts | 353° |
| 2026-04-23 10:27 | -47.74002 | -58.73981 | 37674 ft | 440 kts | 353° |
| 2026-04-23 10:27 | -47.67882 | -58.74324 | 37682 ft | 440 kts | 353° |
| 2026-04-23 10:28 | -47.61754 | -58.74664 | 37664 ft | 441 kts | 353° |
| 2026-04-23 10:28 | -47.55624 | -58.75007 | 37673 ft | 441 kts | 353° |
| 2026-04-23 10:29 | -47.49480 | -58.75350 | 37686 ft | 442 kts | 353° |
| 2026-04-23 10:29 | -47.43328 | -58.75696 | 37694 ft | 442 kts | 353° |
| 2026-04-23 10:30 | -47.37173 | -58.76038 | 37690 ft | 443 kts | 353° |
| 2026-04-23 10:30 | -47.31012 | -58.76372 | 37695 ft | 443 kts | 353° |
| 2026-04-23 10:31 | -47.24848 | -58.76706 | 37704 ft | 443 kts | 353° |
| 2026-04-23 10:31 | -47.18684 | -58.77045 | 37694 ft | 443 kts | 353° |
| 2026-04-23 10:32 | -47.12511 | -58.77388 | 37684 ft | 444 kts | 353° |
| 2026-04-23 10:32 | -47.07373 | -58.77669 | 37693 ft | 445 kts | 353° |
| 2026-04-23 10:33 | -47.01178 | -58.77999 | 37701 ft | 446 kts | 353° |
| 2026-04-23 10:33 | -46.94980 | -58.78335 | 37711 ft | 446 kts | 353° |
| 2026-04-23 10:34 | -46.88784 | -58.78680 | 37696 ft | 444 kts | 353° |
| 2026-04-23 10:34 | -46.82620 | -58.79012 | 37725 ft | 443 kts | 353° |
| 2026-04-23 10:35 | -46.76462 | -58.79345 | 37717 ft | 443 kts | 353° |
| 2026-04-23 10:35 | -46.70307 | -58.79682 | 37725 ft | 443 kts | 353° |
| 2026-04-23 10:36 | -46.64147 | -58.80000 | 37724 ft | 443 kts | 353° |
| 2026-04-23 10:36 | -46.58026 | -58.80319 | 37732 ft | 443 kts | 353° |
| 2026-04-23 10:37 | -46.51864 | -58.80652 | 37743 ft | 443 kts | 353° |
| 2026-04-23 10:37 | -46.45702 | -58.80984 | 37744 ft | 443 kts | 353° |
| 2026-04-23 10:38 | -46.39537 | -58.81316 | 37734 ft | 443 kts | 353° |
| 2026-04-23 10:38 | -46.33373 | -58.81650 | 37730 ft | 444 kts | 353° |
| 2026-04-23 10:39 | -46.27201 | -58.81973 | 37734 ft | 444 kts | 353° |
| 2026-04-23 10:39 | -46.21021 | -58.82297 | 37731 ft | 445 kts | 353° |
| 2026-04-23 10:40 | -46.14838 | -58.82625 | 37740 ft | 445 kts | 353° |
| 2026-04-23 10:40 | -46.08645 | -58.82953 | 37746 ft | 445 kts | 353° |
| 2026-04-23 10:41 | -46.02451 | -58.83279 | 37756 ft | 445 kts | 353° |
| 2026-04-23 10:41 | -45.96258 | -58.83612 | 37739 ft | 445 kts | 353° |
| 2026-04-23 10:42 | -45.90104 | -58.83979 | 37746 ft | 446 kts | 353° |
| 2026-04-23 10:42 | -45.83899 | -58.84358 | 37756 ft | 446 kts | 353° |
| 2026-04-23 10:43 | -45.77692 | -58.84726 | 37764 ft | 446 kts | 353° |
| 2026-04-23 10:43 | -45.71484 | -58.85078 | 37758 ft | 447 kts | 353° |
| 2026-04-23 10:44 | -45.65271 | -58.85434 | 37767 ft | 447 kts | 353° |
| 2026-04-23 10:44 | -45.59058 | -58.85789 | 37772 ft | 447 kts | 353° |
| 2026-04-23 10:45 | -45.52839 | -58.86139 | 37752 ft | 448 kts | 353° |
| 2026-04-23 10:45 | -45.46614 | -58.86502 | 37764 ft | 448 kts | 353° |
| 2026-04-23 10:46 | -45.40380 | -58.86875 | 37780 ft | 449 kts | 353° |
| 2026-04-23 10:46 | -45.34138 | -58.87231 | 37789 ft | 449 kts | 353° |
| 2026-04-23 10:47 | -45.27892 | -58.87578 | 37781 ft | 449 kts | 353° |
| 2026-04-23 10:47 | -45.21644 | -58.87937 | 37796 ft | 449 kts | 353° |
| 2026-04-23 10:48 | -45.15434 | -58.88279 | 37790 ft | 450 kts | 353° |
| 2026-04-23 10:48 | -45.09172 | -58.88620 | 37787 ft | 451 kts | 352° |
| 2026-04-23 10:49 | -45.02905 | -58.88971 | 37798 ft | 451 kts | 352° |
| 2026-04-23 10:49 | -44.96642 | -58.89343 | 37808 ft | 450 kts | 352° |
| 2026-04-23 10:50 | -44.90378 | -58.89712 | 37819 ft | 451 kts | 352° |
| 2026-04-23 10:50 | -44.84111 | -58.90057 | 37818 ft | 451 kts | 352° |
| 2026-04-23 10:51 | -44.77846 | -58.90397 | 37807 ft | 451 kts | 352° |
| 2026-04-23 10:51 | -44.71576 | -58.90746 | 37822 ft | 451 kts | 352° |
| 2026-04-23 10:52 | -44.65302 | -58.91096 | 37824 ft | 452 kts | 352° |
| 2026-04-23 10:52 | -44.59022 | -58.91460 | 37830 ft | 452 kts | 352° |
| 2026-04-23 10:53 | -44.52738 | -58.91806 | 37839 ft | 452 kts | 352° |
| 2026-04-23 10:53 | -44.46454 | -58.92148 | 37851 ft | 452 kts | 352° |
| 2026-04-23 10:54 | -44.40173 | -58.92493 | 37848 ft | 452 kts | 352° |
| 2026-04-23 10:54 | -44.33892 | -58.92848 | 37854 ft | 451 kts | 352° |
| 2026-04-23 10:55 | -44.27613 | -58.93189 | 37862 ft | 451 kts | 352° |
| 2026-04-23 10:55 | -44.21337 | -58.93530 | 37854 ft | 451 kts | 352° |
| 2026-04-23 10:56 | -44.15105 | -58.93872 | 37859 ft | 451 kts | 352° |
| 2026-04-23 10:56 | -44.08793 | -58.94218 | 37863 ft | 451 kts | 352° |
| 2026-04-23 10:57 | -44.02569 | -58.94563 | 37855 ft | 451 kts | 352° |
| 2026-04-23 10:57 | -43.96301 | -58.94910 | 37847 ft | 451 kts | 352° |
| 2026-04-23 10:58 | -43.90031 | -58.95259 | 37854 ft | 451 kts | 352° |
| 2026-04-23 10:58 | -43.83754 | -58.95597 | 37864 ft | 451 kts | 352° |
| 2026-04-23 10:59 | -43.77475 | -58.95926 | 37858 ft | 451 kts | 352° |
| 2026-04-23 10:59 | -43.71202 | -58.96266 | 37875 ft | 451 kts | 352° |
| 2026-04-23 11:00 | -43.64928 | -58.96614 | 37867 ft | 451 kts | 352° |
| 2026-04-23 11:00 | -43.58648 | -58.96951 | 37862 ft | 452 kts | 352° |
| 2026-04-23 11:01 | -43.52359 | -58.97285 | 37885 ft | 452 kts | 352° |
| 2026-04-23 11:01 | -43.46068 | -58.97624 | 37886 ft | 452 kts | 352° |
| 2026-04-23 11:02 | -43.39783 | -58.97960 | 37893 ft | 452 kts | 352° |
| 2026-04-23 11:02 | -43.33499 | -58.98297 | 37886 ft | 452 kts | 351° |
| 2026-04-23 11:03 | -43.27217 | -58.98629 | 37896 ft | 452 kts | 351° |
| 2026-04-23 11:03 | -43.20926 | -58.98958 | 37903 ft | 453 kts | 351° |
| 2026-04-23 11:04 | -43.14631 | -58.99302 | 37900 ft | 453 kts | 351° |
| 2026-04-23 11:04 | -43.08335 | -58.99648 | 37911 ft | 453 kts | 351° |
| 2026-04-23 11:05 | -43.02075 | -58.99978 | 37927 ft | 453 kts | 351° |
| 2026-04-23 11:05 | -42.95768 | -59.00249 | 37915 ft | 454 kts | 353° |
| 2026-04-23 11:06 | -42.86279 | -59.00294 | 37925 ft | 455 kts | 353° |
| 2026-04-23 11:07 | -42.79950 | -59.00327 | 37929 ft | 455 kts | 353° |
| 2026-04-23 11:07 | -42.73622 | -59.00429 | 37930 ft | 455 kts | 353° |
| 2026-04-23 11:08 | -42.67299 | -59.00550 | 37942 ft | 454 kts | 353° |
| 2026-04-23 11:08 | -42.60973 | -59.00639 | 37951 ft | 454 kts | 353° |
| 2026-04-23 11:09 | -42.54650 | -59.00719 | 37930 ft | 454 kts | 353° |
| 2026-04-23 11:09 | -42.48326 | -59.00796 | 37937 ft | 454 kts | 353° |
| 2026-04-23 11:10 | -42.42003 | -59.00880 | 37936 ft | 454 kts | 353° |
| 2026-04-23 11:10 | -42.35681 | -59.00981 | 37947 ft | 454 kts | 353° |
| 2026-04-23 11:11 | -42.29403 | -59.01074 | 37953 ft | 454 kts | 353° |
| 2026-04-23 11:11 | -42.23082 | -59.01154 | 37960 ft | 454 kts | 353° |
| 2026-04-23 11:12 | -42.16756 | -59.01238 | 37955 ft | 455 kts | 353° |
| 2026-04-23 11:12 | -42.10433 | -59.01329 | 37946 ft | 455 kts | 353° |
| 2026-04-23 11:13 | -42.04106 | -59.01414 | 37960 ft | 455 kts | 353° |
| 2026-04-23 11:13 | -41.97781 | -59.01506 | 37970 ft | 454 kts | 352° |
| 2026-04-23 11:14 | -41.91464 | -59.01592 | 37962 ft | 454 kts | 352° |
| 2026-04-23 11:14 | -41.85145 | -59.01675 | 37968 ft | 454 kts | 352° |
| 2026-04-23 11:15 | -41.78829 | -59.01766 | 37973 ft | 454 kts | 352° |
| 2026-04-23 11:15 | -41.72515 | -59.01859 | 37976 ft | 454 kts | 352° |
| 2026-04-23 11:16 | -41.66206 | -59.01938 | 37983 ft | 453 kts | 352° |
| 2026-04-23 11:16 | -41.59937 | -59.02018 | 37986 ft | 453 kts | 352° |
| 2026-04-23 11:17 | -41.53628 | -59.02109 | 37961 ft | 453 kts | 352° |
| 2026-04-23 11:17 | -41.47315 | -59.02198 | 37987 ft | 454 kts | 352° |
| 2026-04-23 11:18 | -41.41001 | -59.02289 | 37995 ft | 454 kts | 352° |
| 2026-04-23 11:18 | -41.34682 | -59.02371 | 37993 ft | 454 kts | 352° |
| 2026-04-23 11:19 | -41.28363 | -59.02445 | 38006 ft | 454 kts | 352° |
| 2026-04-23 11:19 | -41.22042 | -59.02528 | 38012 ft | 454 kts | 352° |
| 2026-04-23 11:20 | -41.15719 | -59.02616 | 37996 ft | 454 kts | 352° |
| 2026-04-23 11:20 | -41.09422 | -59.02925 | 38009 ft | 452 kts | 349° |
| 2026-04-23 11:21 | -41.03146 | -59.03412 | 38025 ft | 452 kts | 349° |
| 2026-04-23 11:21 | -40.96865 | -59.03879 | 38013 ft | 452 kts | 350° |
| 2026-04-23 11:22 | -40.90624 | -59.04272 | 38030 ft | 452 kts | 350° |
| 2026-04-23 11:22 | -40.84339 | -59.04647 | 38029 ft | 452 kts | 350° |
| 2026-04-23 11:23 | -40.78057 | -59.05036 | 38019 ft | 452 kts | 350° |
| 2026-04-23 11:23 | -40.71775 | -59.05425 | 38030 ft | 452 kts | 350° |
| 2026-04-23 11:24 | -40.65497 | -59.05826 | 38037 ft | 452 kts | 350° |
| 2026-04-23 11:24 | -40.59219 | -59.06227 | 38035 ft | 452 kts | 350° |
| 2026-04-23 11:25 | -40.52939 | -59.06617 | 38036 ft | 452 kts | 350° |
| 2026-04-23 11:25 | -40.46661 | -59.07006 | 38043 ft | 452 kts | 350° |
| 2026-04-23 11:26 | -40.41441 | -59.07336 | 38024 ft | 452 kts | 350° |
| 2026-04-23 11:26 | -40.35167 | -59.07726 | 38041 ft | 451 kts | 350° |
| 2026-04-23 11:27 | -40.28889 | -59.08109 | 38060 ft | 451 kts | 350° |
| 2026-04-23 11:27 | -40.22617 | -59.08492 | 38045 ft | 451 kts | 350° |
| 2026-04-23 11:28 | -40.16357 | -59.08883 | 38062 ft | 450 kts | 350° |
| 2026-04-23 11:28 | -40.10102 | -59.09271 | 38069 ft | 450 kts | 350° |
| 2026-04-23 11:29 | -40.03856 | -59.09654 | 38052 ft | 449 kts | 350° |
| 2026-04-23 11:29 | -39.97627 | -59.10034 | 38075 ft | 448 kts | 350° |
| 2026-04-23 11:30 | -39.91410 | -59.10417 | 38085 ft | 447 kts | 350° |
| 2026-04-23 11:30 | -39.85202 | -59.10801 | 38064 ft | 446 kts | 349° |
| 2026-04-23 11:31 | -39.79003 | -59.11179 | 38087 ft | 446 kts | 349° |
| 2026-04-23 11:31 | -39.72810 | -59.11558 | 38093 ft | 445 kts | 349° |
| 2026-04-23 11:32 | -39.66626 | -59.11939 | 38073 ft | 445 kts | 349° |
| 2026-04-23 11:32 | -39.60448 | -59.12312 | 38096 ft | 444 kts | 349° |
| 2026-04-23 11:33 | -39.54277 | -59.12683 | 38105 ft | 444 kts | 349° |
| 2026-04-23 11:33 | -39.48153 | -59.13058 | 38090 ft | 443 kts | 349° |
| 2026-04-23 11:34 | -39.42005 | -59.13435 | 38104 ft | 442 kts | 349° |
| 2026-04-23 11:34 | -39.35864 | -59.13805 | 38112 ft | 442 kts | 349° |
| 2026-04-23 11:35 | -39.29729 | -59.14170 | 38119 ft | 441 kts | 349° |
| 2026-04-23 11:35 | -39.23599 | -59.14525 | 38112 ft | 440 kts | 349° |
| 2026-04-23 11:36 | -39.17485 | -59.14897 | 38122 ft | 439 kts | 349° |
| 2026-04-23 11:36 | -39.11379 | -59.15269 | 38127 ft | 439 kts | 349° |
| 2026-04-23 11:37 | -39.05284 | -59.15641 | 38111 ft | 438 kts | 348° |
| 2026-04-23 11:37 | -38.99194 | -59.16003 | 38130 ft | 438 kts | 348° |
| 2026-04-23 11:38 | -38.93113 | -59.16366 | 38140 ft | 437 kts | 348° |
| 2026-04-23 11:38 | -38.87036 | -59.16735 | 38146 ft | 437 kts | 348° |
| 2026-04-23 11:39 | -38.80963 | -59.17066 | 38136 ft | 438 kts | 349° |
| 2026-04-23 11:39 | -38.74870 | -59.17284 | 38137 ft | 438 kts | 349° |
| 2026-04-23 11:40 | -38.68775 | -59.17479 | 38141 ft | 438 kts | 349° |
| 2026-04-23 11:40 | -38.62687 | -59.17696 | 38149 ft | 437 kts | 349° |
| 2026-04-23 11:41 | -38.56608 | -59.17935 | 38143 ft | 437 kts | 349° |
| 2026-04-23 11:41 | -38.50529 | -59.18168 | 38105 ft | 437 kts | 349° |
| 2026-04-23 11:42 | -38.44457 | -59.18400 | 38132 ft | 436 kts | 349° |
| 2026-04-23 11:42 | -38.38389 | -59.18625 | 38147 ft | 436 kts | 349° |
| 2026-04-23 11:43 | -38.32328 | -59.18849 | 38152 ft | 436 kts | 349° |
| 2026-04-23 11:43 | -38.26312 | -59.19078 | 38148 ft | 435 kts | 348° |
| 2026-04-23 11:44 | -38.20259 | -59.19307 | 38155 ft | 435 kts | 348° |
| 2026-04-23 11:44 | -38.14217 | -59.19543 | 38161 ft | 434 kts | 348° |
| 2026-04-23 11:45 | -38.08182 | -59.19779 | 38133 ft | 434 kts | 348° |
| 2026-04-23 11:45 | -38.02152 | -59.19998 | 38150 ft | 433 kts | 348° |
| 2026-04-23 11:46 | -37.96133 | -59.20214 | 38161 ft | 432 kts | 348° |
| 2026-04-23 11:46 | -37.90119 | -59.20436 | 38135 ft | 432 kts | 348° |
| 2026-04-23 11:47 | -37.84116 | -59.20665 | 38157 ft | 431 kts | 348° |
| 2026-04-23 11:47 | -37.78117 | -59.20890 | 38172 ft | 431 kts | 348° |
| 2026-04-23 11:48 | -37.72124 | -59.21113 | 38181 ft | 431 kts | 348° |
| 2026-04-23 11:48 | -37.66135 | -59.21333 | 38166 ft | 430 kts | 348° |
| 2026-04-23 11:49 | -37.60155 | -59.21556 | 38178 ft | 430 kts | 348° |
| 2026-04-23 11:49 | -37.54182 | -59.21777 | 38185 ft | 429 kts | 348° |
| 2026-04-23 11:50 | -37.48215 | -59.21987 | 38153 ft | 428 kts | 348° |
| 2026-04-23 11:50 | -37.42304 | -59.22212 | 38172 ft | 428 kts | 348° |
| 2026-04-23 11:51 | -37.36316 | -59.22432 | 38180 ft | 429 kts | 349° |
| 2026-04-23 11:51 | -37.30308 | -59.21803 | 38184 ft | 438 kts | 355° |
| 2026-04-23 11:52 | -37.24245 | -59.20995 | 38165 ft | 438 kts | 355° |
| 2026-04-23 11:52 | -37.18183 | -59.20183 | 38181 ft | 438 kts | 355° |
| 2026-04-23 11:53 | -37.12121 | -59.19401 | 38186 ft | 438 kts | 355° |
| 2026-04-23 11:53 | -37.06056 | -59.18628 | 38165 ft | 438 kts | 355° |
| 2026-04-23 11:54 | -37.00002 | -59.17845 | 38190 ft | 438 kts | 355° |
| 2026-04-23 11:54 | -36.93945 | -59.17059 | 38201 ft | 437 kts | 355° |
| 2026-04-23 11:55 | -36.87894 | -59.16278 | 38209 ft | 437 kts | 355° |
| 2026-04-23 11:55 | -36.81842 | -59.15498 | 38213 ft | 437 kts | 355° |
| 2026-04-23 11:56 | -36.75793 | -59.14720 | 38214 ft | 437 kts | 355° |
| 2026-04-23 11:56 | -36.69742 | -59.13947 | 38214 ft | 437 kts | 355° |
| 2026-04-23 11:57 | -36.63695 | -59.13175 | 38186 ft | 437 kts | 355° |
| 2026-04-23 11:57 | -36.57652 | -59.12401 | 38199 ft | 436 kts | 355° |
| 2026-04-23 11:58 | -36.51611 | -59.11627 | 38207 ft | 436 kts | 355° |
| 2026-04-23 11:58 | -36.45572 | -59.10858 | 38211 ft | 436 kts | 355° |
| 2026-04-23 11:59 | -36.39531 | -59.10089 | 38183 ft | 436 kts | 355° |
| 2026-04-23 11:59 | -36.33537 | -59.09328 | 38204 ft | 436 kts | 355° |
| 2026-04-23 12:00 | -36.27512 | -59.08565 | 38211 ft | 435 kts | 355° |
| 2026-04-23 12:00 | -36.21489 | -59.07798 | 37855 ft | 434 kts | 355° |
| 2026-04-23 12:00 | -36.18486 | -59.07417 | 37214 ft | 434 kts | 355° |
| 2026-04-23 12:01 | -36.15475 | -59.07036 | 36539 ft | 436 kts | 355° |
| 2026-04-23 12:01 | -36.12442 | -59.06657 | 35788 ft | 439 kts | 355° |
| 2026-04-23 12:01 | -36.09387 | -59.06279 | 34954 ft | 444 kts | 355° |
| 2026-04-23 12:01 | -36.06306 | -59.05899 | 34175 ft | 446 kts | 355° |
| 2026-04-23 12:02 | -36.03201 | -59.05512 | 33143 ft | 451 kts | 356° |
| 2026-04-23 12:02 | -36.00064 | -59.05118 | 32128 ft | 456 kts | 357° |
| 2026-04-23 12:02 | -35.96892 | -59.04717 | 31110 ft | 460 kts | 358° |
| 2026-04-23 12:02 | -35.93699 | -59.04312 | 29966 ft | 465 kts | 359° |
| 2026-04-23 12:03 | -35.90469 | -59.03905 | 28932 ft | 466 kts | 359° |
| 2026-04-23 12:03 | -35.87288 | -59.03497 | 28422 ft | 455 kts | 359° |
| 2026-04-23 12:03 | -35.84158 | -59.03093 | 27700 ft | 450 kts | 359° |
| 2026-04-23 12:03 | -35.81059 | -59.02697 | 27007 ft | 445 kts | 359° |
| 2026-04-23 12:04 | -35.77993 | -59.02310 | 26316 ft | 441 kts | 359° |
| 2026-04-23 12:04 | -35.74961 | -59.01932 | 25615 ft | 437 kts | 359° |
| 2026-04-23 12:04 | -35.71948 | -59.01560 | 24962 ft | 433 kts | 359° |
| 2026-04-23 12:04 | -35.68962 | -59.01191 | 24288 ft | 430 kts | 359° |
| 2026-04-23 12:05 | -35.65993 | -59.00822 | 23594 ft | 427 kts | 360° |
| 2026-04-23 12:05 | -35.63049 | -59.00455 | 22896 ft | 423 kts | 360° |
| 2026-04-23 12:05 | -35.60142 | -59.00091 | 22277 ft | 418 kts | 360° |
| 2026-04-23 12:05 | -35.57266 | -58.99732 | 21669 ft | 413 kts | 360° |
| 2026-04-23 12:06 | -35.54418 | -58.99381 | 21085 ft | 410 kts | 360° |
| 2026-04-23 12:06 | -35.51593 | -58.99033 | 20513 ft | 406 kts | 0° |
| 2026-04-23 12:06 | -35.46028 | -58.98345 | 19437 ft | 398 kts | 0° |
| 2026-04-23 12:07 | -35.43285 | -58.98003 | 18888 ft | 394 kts | 0° |
| 2026-04-23 12:07 | -35.40564 | -58.97664 | 18293 ft | 392 kts | 0° |
| 2026-04-23 12:07 | -35.37870 | -58.97327 | 17698 ft | 387 kts | 0° |
| 2026-04-23 12:07 | -35.35203 | -58.96995 | 17126 ft | 382 kts | 0° |
| 2026-04-23 12:08 | -35.32570 | -58.96669 | 16542 ft | 378 kts | 1° |
| 2026-04-23 12:08 | -35.29960 | -58.96350 | 15949 ft | 375 kts | 1° |
| 2026-04-23 12:08 | -35.27375 | -58.96035 | 15354 ft | 372 kts | 1° |
| 2026-04-23 12:08 | -35.24810 | -58.95722 | 14754 ft | 370 kts | 1° |
| 2026-04-23 12:09 | -35.22258 | -58.95410 | 14151 ft | 368 kts | 1° |
| 2026-04-23 12:09 | -35.19718 | -58.95097 | 13504 ft | 365 kts | 2° |
| 2026-04-23 12:09 | -35.17201 | -58.94784 | 12897 ft | 362 kts | 2° |
| 2026-04-23 12:09 | -35.14712 | -58.94472 | 12296 ft | 358 kts | 2° |
| 2026-04-23 12:10 | -35.12246 | -58.94165 | 11700 ft | 354 kts | 2° |
| 2026-04-23 12:10 | -35.09806 | -58.93861 | 11114 ft | 351 kts | 2° |
| 2026-04-23 12:10 | -35.07406 | -58.93564 | 10791 ft | 340 kts | 2° |
| 2026-04-23 12:10 | -35.05111 | -58.93279 | 10672 ft | 324 kts | 2° |
| 2026-04-23 12:11 | -35.02918 | -58.93007 | 10557 ft | 310 kts | 2° |
| 2026-04-23 12:11 | -35.00812 | -58.92746 | 10368 ft | 300 kts | 2° |
| 2026-04-23 12:11 | -34.98761 | -58.92493 | 10186 ft | 295 kts | 2° |
| 2026-04-23 12:11 | -34.96721 | -58.92250 | 10067 ft | 294 kts | 2° |
| 2026-04-23 12:12 | -34.94709 | -58.92010 | 9698 ft | 297 kts | 2° |
| 2026-04-23 12:12 | -34.92647 | -58.91765 | 9307 ft | 295 kts | 2° |
| 2026-04-23 12:12 | -34.90617 | -58.91518 | 8844 ft | 292 kts | 2° |
| 2026-04-23 12:12 | -34.88600 | -58.91271 | 8342 ft | 291 kts | 2° |
| 2026-04-23 12:13 | -34.86592 | -58.91025 | 7858 ft | 289 kts | 2° |
| 2026-04-23 12:13 | -34.84598 | -58.90781 | 7378 ft | 287 kts | 2° |
| 2026-04-23 12:13 | -34.82625 | -58.90481 | 6916 ft | 286 kts | 9° |
| 2026-04-23 12:13 | -34.80793 | -58.89619 | 6727 ft | 278 kts | 27° |
| 2026-04-23 12:14 | -34.79756 | -58.88747 | 6651 ft | 271 kts | 38° |
| 2026-04-23 12:14 | -34.78490 | -58.87068 | 6457 ft | 263 kts | 54° |
| 2026-04-23 12:14 | -34.77653 | -58.85147 | 6055 ft | 260 kts | 69° |
| 2026-04-23 12:14 | -34.77245 | -58.83015 | 5593 ft | 259 kts | 85° |
| 2026-04-23 12:15 | -34.77420 | -58.80130 | 4957 ft | 256 kts | 103° |
| 2026-04-23 12:15 | -34.77676 | -58.78719 | 4524 ft | 260 kts | 104° |
| 2026-04-23 12:15 | -34.78064 | -58.76613 | 3957 ft | 251 kts | 103° |
| 2026-04-23 12:15 | -34.78436 | -58.74566 | 3364 ft | 243 kts | 103° |
| 2026-04-23 12:16 | -34.78787 | -58.72625 | 2940 ft | 228 kts | 104° |
| 2026-04-23 12:16 | -34.79116 | -58.70808 | 2626 ft | 212 kts | 104° |
| 2026-04-23 12:16 | -34.79420 | -58.69124 | 2380 ft | 194 kts | 104° |
| 2026-04-23 12:16 | -34.79697 | -58.67588 | 2109 ft | 175 kts | 105° |
| 2026-04-23 12:17 | -34.79936 | -58.66260 | 1880 ft | 149 kts | 105° |
| 2026-04-23 12:17 | -34.80146 | -58.65098 | 1689 ft | 135 kts | 105° |
| 2026-04-23 12:17 | -34.80344 | -58.64002 | 1513 ft | 131 kts | 105° |
| 2026-04-23 12:17 | -34.80538 | -58.62931 | 1341 ft | 129 kts | 105° |
| 2026-04-23 12:18 | -34.80730 | -58.61870 | 1171 ft | 128 kts | 104° |
| 2026-04-23 12:18 | -34.80920 | -58.60812 | 987 ft | 128 kts | 104° |
| 2026-04-23 12:18 | -34.81109 | -58.59756 | 824 ft | 128 kts | 103° |
| 2026-04-23 12:18 | -34.81299 | -58.58700 | 655 ft | 128 kts | 103° |
| 2026-04-23 12:19 | -34.81490 | -58.57644 | 488 ft | 128 kts | 102° |
| 2026-04-23 12:19 | -34.81681 | -58.56590 | 319 ft | 128 kts | 102° |
| 2026-04-23 12:19 | -34.81870 | -58.55537 | 155 ft | 127 kts | 102° |
| 2026-04-23 12:19 | -34.82051 | -58.54534 | 74 ft | 113 kts | 103° |
| 2026-04-23 12:20 | -34.82183 | -58.53798 | 69 ft | 66 kts | 102° |
| 2026-04-23 12:20 | -34.82253 | -58.53412 | 73 ft | 40 kts | 102° |
| 2026-04-23 12:20 | -34.82316 | -58.53061 | 73 ft | 40 kts | 101° |
| 2026-04-23 12:20 | -34.82289 | -58.52890 | 68 ft | 20 kts | 357° |
| 2026-04-23 12:21 | -34.82141 | -58.52938 | 71 ft | 24 kts | 344° |
| 2026-04-23 12:21 | -34.81968 | -58.52999 | 69 ft | 28 kts | 344° |
| 2026-04-23 12:21 | -34.81765 | -58.53068 | 68 ft | 32 kts | 344° |
| 2026-04-23 12:21 | -34.81575 | -58.53145 | 69 ft | 22 kts | 324° |
| 2026-04-23 12:22 | -34.81481 | -58.53314 | 73 ft | 26 kts | 299° |
| 2026-04-23 12:22 | -34.81393 | -58.53508 | 72 ft | 17 kts | 298° |
| 2026-04-23 12:22 | -34.81405 | -58.53618 | 73 ft | 10 kts | 265° |
| 2026-04-23 12:22 | -34.81362 | -58.53697 | 70 ft | 7 kts | 309° |
| 2026-04-23 12:23 | -34.81353 | -58.53711 | 73 ft | 0 kts | 309° |
| 2026-04-23 12:23 | -34.81352 | -58.53711 | 70 ft | 0 kts | 309° |